createdAt,value
2023-04-16T00:00:28.369Z,6.8
2023-04-16T00:05:27.980Z,6.4
2023-04-16T00:10:17.430Z,6.6
2023-04-16T00:15:23.221Z,6.8
2023-04-16T00:20:29.114Z,6.9
2023-04-16T00:25:18.143Z,6.7
2023-04-16T00:30:24.386Z,6.4
2023-04-16T00:35:30.222Z,6.4
2023-04-16T00:40:20.397Z,6.2
2023-04-16T00:45:24.762Z,6.5
2023-04-16T00:50:30.966Z,6.4
2023-04-16T00:55:20.041Z,6.6
2023-04-16T01:00:27.633Z,6.7
2023-04-16T01:05:32.325Z,7.5
2023-04-16T01:10:21.093Z,7.7
2023-04-16T01:15:27.389Z,8.2
2023-04-16T01:20:33.394Z,8.3
2023-04-16T01:25:22.288Z,8.5
2023-04-16T01:30:28.416Z,8.3
2023-04-16T01:35:17.570Z,7.8
2023-04-16T01:40:25.078Z,7.6
2023-04-16T01:45:29.414Z,7.2
2023-04-16T01:50:18.390Z,7.6
2023-04-16T01:55:24.477Z,7.9
2023-04-16T02:00:35.169Z,7.6
2023-04-16T02:05:19.207Z,7.4
2023-04-16T02:10:25.370Z,7.0
2023-04-16T02:15:31.601Z,7.0
2023-04-16T02:20:21.565Z,6.9
2023-04-16T02:25:26.481Z,7.2
2023-04-16T02:30:32.575Z,7.9
2023-04-16T02:35:21.567Z,8.5
2023-04-16T02:40:27.657Z,9.4
2023-04-16T02:45:16.956Z,10.2
2023-04-16T02:50:23.117Z,10.4
2023-04-16T02:55:28.893Z,11.1
2023-04-16T03:00:18.129Z,12.0
2023-04-16T03:05:23.414Z,12.4
2023-04-16T03:10:29.719Z,13.1
2023-04-16T03:15:18.508Z,13.6
2023-04-16T03:20:25.634Z,12.7
2023-04-16T03:25:30.620Z,12.7
2023-04-16T03:30:19.713Z,13.8
2023-04-16T03:35:25.915Z,14.0
2023-04-16T03:40:32.017Z,14.2
2023-04-16T03:45:20.752Z,13.8
2023-04-16T03:50:26.679Z,14.2
2023-04-16T03:55:32.609Z,14.3
2023-04-16T04:00:26.032Z,14.4
2023-04-16T04:05:28.073Z,13.8
2023-04-16T04:10:17.046Z,13.8
2023-04-16T04:15:23.245Z,13.3
2023-04-16T04:20:29.054Z,12.9
2023-04-16T04:25:18.022Z,12.1
2023-04-16T04:30:24.341Z,13.2
2023-04-16T04:35:30.361Z,13.0
2023-04-16T04:40:20.388Z,12.9
2023-04-16T04:45:25.151Z,13.5
2023-04-16T04:50:31.218Z,13.5
2023-04-16T04:55:20.025Z,13.6
2023-04-16T05:00:27.355Z,13.2
2023-04-16T05:05:31.399Z,13.8
2023-04-16T05:10:20.257Z,13.1
2023-04-16T05:15:26.638Z,12.8
2023-04-16T05:20:32.679Z,12.9
2023-04-16T05:25:21.664Z,12.6
2023-04-16T05:30:27.564Z,12.3
2023-04-16T05:35:17.698Z,11.4
2023-04-16T05:40:25.358Z,10.6
2023-04-16T05:45:28.527Z,10.9
2023-04-16T05:50:17.390Z,9.3
2023-04-16T05:55:23.633Z,10.8
2023-04-16T06:00:34.008Z,7.9
2023-04-16T06:05:19.401Z,7.3
2023-04-16T06:10:25.173Z,6.3
2023-04-16T06:15:31.283Z,6.3
2023-04-16T06:20:21.415Z,6.0
2023-04-16T06:25:26.241Z,5.9
2023-04-16T06:30:32.453Z,5.8
2023-04-16T06:35:21.732Z,5.5
2023-04-16T06:40:27.618Z,6.6
2023-04-16T06:45:33.009Z,6.2
2023-04-16T06:50:21.833Z,7.0
2023-04-16T06:55:27.926Z,8.2
2023-04-16T07:00:17.280Z,8.1
2023-04-16T07:05:22.528Z,7.5
2023-04-16T07:10:28.545Z,6.9
2023-04-16T07:15:17.426Z,6.4
2023-04-16T07:20:23.907Z,5.7
2023-04-16T07:25:29.518Z,5.7
2023-04-16T07:30:18.806Z,5.3
2023-04-16T07:35:24.659Z,5.5
2023-04-16T07:40:31.089Z,5.0
2023-04-16T07:45:19.683Z,4.8
2023-04-16T07:50:25.517Z,4.5
2023-04-16T07:55:32.089Z,4.6
2023-04-16T08:00:24.787Z,4.5
2023-04-16T08:05:27.123Z,4.1
2023-04-16T08:10:33.207Z,3.5
2023-04-16T08:15:22.098Z,3.8
2023-04-16T08:20:28.255Z,3.7
2023-04-16T08:25:17.220Z,3.5
2023-04-16T08:30:23.466Z,3.5
2023-04-16T08:35:29.328Z,2.9
2023-04-16T08:40:19.586Z,3.1
2023-04-16T08:45:24.210Z,2.8
2023-04-16T08:50:30.084Z,2.9
2023-04-16T08:55:19.121Z,2.4
2023-04-16T09:00:27.116Z,2.2
2023-04-16T09:05:30.504Z,2.5
2023-04-16T09:10:19.618Z,3.1
2023-04-16T09:15:25.914Z,2.9
2023-04-16T09:20:31.595Z,2.9
2023-04-16T09:25:20.540Z,3.3
2023-04-16T09:30:26.808Z,3.9
2023-04-16T09:35:32.662Z,4.0
2023-04-16T09:40:23.402Z,4.1
2023-04-16T09:45:27.758Z,3.8
2023-04-16T09:50:18.280Z,3.3
2023-04-16T09:55:22.659Z,3.1
2023-04-16T10:00:32.377Z,3.1
2023-04-16T10:05:18.102Z,3.3
2023-04-16T10:10:24.292Z,2.9
2023-04-16T10:15:30.230Z,2.6
2023-04-16T10:20:21.308Z,2.6
2023-04-16T10:25:25.331Z,2.8
2023-04-16T10:30:31.410Z,2.7
2023-04-16T10:35:20.381Z,5.1
2023-04-16T10:40:26.566Z,7.2
2023-04-16T10:45:32.238Z,5.3
2023-04-16T10:50:21.060Z,2.3
2023-04-16T10:55:27.471Z,2.2
2023-04-16T11:00:33.593Z,2.4
2023-04-16T11:05:21.735Z,5.0
2023-04-16T11:10:27.583Z,3.6
2023-04-16T11:15:16.721Z,3.5
2023-04-16T11:20:23.198Z,5.1
2023-04-16T11:25:28.761Z,4.4
2023-04-16T11:30:17.814Z,2.8
2023-04-16T11:35:23.825Z,2.4
2023-04-16T11:40:31.821Z,2.7
2023-04-16T11:45:18.673Z,2.7
2023-04-16T11:50:24.698Z,2.5
2023-04-16T11:55:30.587Z,2.4
2023-04-16T12:00:24.385Z,3.0
2023-04-16T12:05:26.153Z,3.7
2023-04-16T12:10:32.814Z,4.0
2023-04-16T12:15:21.262Z,2.4
2023-04-16T12:20:27.633Z,2.6
2023-04-16T12:25:34.380Z,2.6
2023-04-16T12:30:22.462Z,2.4
2023-04-16T12:35:28.487Z,2.8
2023-04-16T12:40:19.079Z,6.0
2023-04-16T12:45:23.158Z,4.3
2023-04-16T12:50:29.049Z,2.9
2023-04-16T12:55:18.108Z,2.7
2023-04-16T13:00:26.626Z,2.5
2023-04-16T13:05:29.547Z,2.3
2023-04-16T13:10:18.615Z,2.2
2023-04-16T13:15:24.838Z,2.3
2023-04-16T13:20:30.690Z,2.0
2023-04-16T13:25:19.683Z,2.0
2023-04-16T13:30:26.008Z,2.3
2023-04-16T13:35:32.003Z,2.1
2023-04-16T13:40:22.443Z,1.9
2023-04-16T13:45:26.769Z,1.8
2023-04-16T13:50:32.840Z,1.9
2023-04-16T13:55:21.684Z,1.8
2023-04-16T14:00:31.607Z,1.8
2023-04-16T14:05:17.187Z,1.7
2023-04-16T14:10:22.981Z,1.7
2023-04-16T14:15:29.235Z,1.5
2023-04-16T14:20:18.156Z,1.6
2023-04-16T14:25:24.173Z,1.6
2023-04-16T14:30:30.602Z,1.8
2023-04-16T14:35:19.273Z,2.3
2023-04-16T14:40:25.557Z,1.9
2023-04-16T14:45:31.428Z,1.6
2023-04-16T14:50:20.394Z,2.1
2023-04-16T14:55:26.460Z,4.1
2023-04-16T15:00:32.566Z,4.2
2023-04-16T15:05:21.930Z,2.1
2023-04-16T15:10:28.185Z,1.9
2023-04-16T15:15:16.976Z,1.8
2023-04-16T15:20:24.526Z,3.3
2023-04-16T15:25:29.067Z,2.0
2023-04-16T15:30:17.976Z,2.1
2023-04-16T15:35:24.094Z,2.6
2023-04-16T15:40:30.162Z,1.9
2023-04-16T15:45:18.833Z,1.8
2023-04-16T15:50:24.631Z,1.6
2023-04-16T15:55:30.732Z,3.3
2023-04-16T16:00:26.262Z,2.5
2023-04-16T16:05:26.178Z,3.4
2023-04-16T16:10:32.391Z,2.1
2023-04-16T16:15:21.380Z,2.4
2023-04-16T16:20:27.532Z,2.1
2023-04-16T16:25:33.570Z,3.2
2023-04-16T16:30:22.600Z,2.5
2023-04-16T16:35:28.728Z,3.2
2023-04-16T16:40:17.966Z,2.4
2023-04-16T16:45:23.037Z,1.4
2023-04-16T16:50:29.262Z,2.5
2023-04-16T16:55:18.795Z,3.7
2023-04-16T17:00:24.433Z,5.0
2023-04-16T17:05:29.729Z,4.2
2023-04-16T17:10:18.597Z,2.3
2023-04-16T17:15:24.828Z,2.5
2023-04-16T17:20:30.862Z,2.8
2023-04-16T17:25:19.955Z,2.2
2023-04-16T17:30:26.052Z,2.2
2023-04-16T17:35:32.155Z,2.4
2023-04-16T17:40:21.012Z,2.9
2023-04-16T17:45:28.236Z,2.0
2023-04-16T17:50:32.543Z,17.4
2023-04-16T17:55:21.633Z,29.5
2023-04-16T18:00:30.287Z,3.9
2023-04-16T18:05:16.862Z,4.6
2023-04-16T18:10:23.076Z,3.4
2023-04-16T18:15:28.966Z,3.1
2023-04-16T18:20:19.117Z,2.8
2023-04-16T18:25:33.932Z,2.9
2023-04-16T18:30:30.144Z,3.6
2023-04-16T18:35:19.172Z,15.6
2023-04-16T18:40:25.444Z,8.0
2023-04-16T18:45:30.944Z,6.7
2023-04-16T18:50:19.997Z,6.5
2023-04-16T18:55:26.081Z,7.9
2023-04-16T19:00:32.801Z,6.4
2023-04-16T19:05:20.440Z,7.2
2023-04-16T19:10:26.533Z,5.2
2023-04-16T19:15:34.833Z,3.4
2023-04-16T19:20:23.380Z,3.8
2023-04-16T19:25:27.893Z,3.6
2023-04-16T19:30:16.723Z,3.8
2023-04-16T19:35:22.999Z,3.5
2023-04-16T19:40:28.964Z,3.5
2023-04-16T19:45:17.482Z,3.6
2023-04-16T19:50:23.536Z,3.5
2023-04-16T19:55:29.561Z,3.3
2023-04-16T20:00:21.925Z,3.9
2023-04-16T20:05:24.977Z,4.2
2023-04-16T20:10:31.431Z,4.1
2023-04-16T20:15:20.058Z,3.5
2023-04-16T20:20:26.107Z,11.7
2023-04-16T20:25:32.344Z,9.3
2023-04-16T20:30:21.255Z,6.6
2023-04-16T20:35:27.335Z,3.4
2023-04-16T20:40:33.604Z,3.5
2023-04-16T20:45:21.863Z,3.7
2023-04-16T20:50:27.945Z,4.3
2023-04-16T20:55:16.980Z,5.0
2023-04-16T21:00:23.281Z,4.2
2023-04-16T21:05:28.505Z,3.7
2023-04-16T21:10:17.511Z,3.4
2023-04-16T21:15:23.574Z,4.5
2023-04-16T21:20:30.670Z,4.9
2023-04-16T21:25:18.651Z,3.5
2023-04-16T21:30:24.777Z,4.9
2023-04-16T21:35:30.824Z,2.9
2023-04-16T21:40:20.869Z,3.5
2023-04-16T21:45:25.695Z,3.7
2023-04-16T21:50:31.487Z,4.3
2023-04-16T21:55:20.530Z,3.0
2023-04-16T22:00:32.557Z,3.1
2023-04-16T22:05:32.941Z,2.9
2023-04-16T22:10:22.411Z,3.0
2023-04-16T22:15:27.924Z,2.8
2023-04-16T22:20:17.087Z,3.0
2023-04-16T22:25:22.981Z,2.9
2023-04-16T22:30:29.520Z,3.3
2023-04-16T22:35:18.049Z,4.2
2023-04-16T22:40:25.176Z,3.4
2023-04-16T22:45:30.305Z,3.0
2023-04-16T22:50:19.089Z,3.0
2023-04-16T22:55:25.140Z,3.0
2023-04-16T23:00:31.357Z,2.8
2023-04-16T23:05:19.547Z,3.1
2023-04-16T23:10:25.906Z,2.8
2023-04-16T23:15:31.695Z,3.0
2023-04-16T23:20:21.554Z,3.0
2023-04-16T23:25:26.932Z,2.8
2023-04-16T23:30:33.035Z,2.9
2023-04-16T23:35:21.857Z,2.7
2023-04-16T23:40:27.982Z,2.7
2023-04-16T23:45:16.696Z,2.8
2023-04-16T23:50:24.210Z,2.8
2023-04-16T23:55:28.631Z,2.9
